Terminal Aerodrome Forecast
Issued by NWS Missoula, MT

Home | Current Version | Previous Version | Text Only | Print | Product List | Glossary On
Versions: 1 2 3 4 5 6 7 8 9 10 11 12 13 14
000
FTUS45 KMSO 302328
TAFGPI
TAF
KGPI 302328Z 3100/3124 33006KT P6SM OVC080
     FM310200 01007KT P6SM BKN080
     FM310600 02007KT P6SM OVC060
     FM311700 02005KT P6SM SCT080=

USA.gov is the U.S. government's official web portal to all federal, state and local government web resources and services.